createdAt,value
2023-04-16T00:01:35.714Z,10.18
2023-04-16T00:04:03.793Z,10.14
2023-04-16T00:06:30.688Z,10.10
2023-04-16T00:08:57.425Z,10.08
2023-04-16T00:11:24.334Z,10.00
2023-04-16T00:13:50.991Z,9.97
2023-04-16T00:16:17.769Z,9.97
2023-04-16T00:18:44.528Z,9.94
2023-04-16T00:21:11.247Z,9.91
2023-04-16T00:23:38.235Z,9.93
2023-04-16T00:26:05.030Z,9.86
2023-04-16T00:28:31.684Z,9.88
2023-04-16T00:31:01.231Z,9.87
2023-04-16T00:33:30.095Z,9.87
2023-04-16T00:35:56.724Z,9.80
2023-04-16T00:38:23.454Z,9.71
2023-04-16T00:40:50.247Z,9.86
2023-04-16T00:43:23.288Z,9.82
2023-04-16T00:45:51.305Z,9.67
2023-04-16T00:48:20.408Z,9.70
2023-04-16T00:50:47.026Z,9.79
2023-04-16T00:53:15.532Z,9.83
2023-04-16T00:55:42.295Z,9.89
2023-04-16T00:58:08.981Z,9.95
2023-04-16T01:00:35.756Z,9.78
2023-04-16T01:03:02.567Z,9.72
2023-04-16T01:05:30.465Z,9.72
2023-04-16T01:08:00.730Z,9.59
2023-04-16T01:10:27.440Z,9.52
2023-04-16T01:12:54.087Z,9.49
2023-04-16T01:15:20.727Z,9.52
2023-04-16T01:17:47.719Z,9.50
2023-04-16T01:20:14.614Z,9.48
2023-04-16T01:22:41.186Z,9.41
2023-04-16T01:25:07.957Z,9.32
2023-04-16T01:27:34.660Z,9.31
2023-04-16T01:30:01.267Z,9.14
2023-04-16T01:32:27.844Z,9.14
2023-04-16T01:34:54.490Z,9.12
2023-04-16T01:37:21.120Z,9.09
2023-04-16T01:39:47.754Z,9.10
2023-04-16T01:42:14.407Z,9.10
2023-04-16T01:44:41.007Z,9.02
2023-04-16T01:47:08.250Z,9.03
2023-04-16T01:49:34.971Z,9.08
2023-04-16T01:52:01.553Z,9.08
2023-04-16T01:54:28.269Z,9.12
2023-04-16T01:56:54.829Z,9.11
2023-04-16T01:59:21.530Z,9.05
2023-04-16T02:01:48.278Z,9.06
2023-04-16T02:04:14.990Z,9.00
2023-04-16T02:06:41.698Z,8.95
2023-04-16T02:09:08.540Z,8.92
2023-04-16T02:11:35.495Z,8.91
2023-04-16T02:14:02.312Z,8.95
2023-04-16T02:16:28.968Z,8.91
2023-04-16T02:18:55.564Z,8.90
2023-04-16T02:21:22.248Z,8.83
2023-04-16T02:23:51.835Z,8.83
2023-04-16T02:26:18.724Z,8.84
2023-04-16T02:28:45.517Z,8.89
2023-04-16T02:31:12.122Z,8.86
2023-04-16T02:33:38.723Z,8.87
2023-04-16T02:36:05.821Z,8.86
2023-04-16T02:38:32.448Z,8.79
2023-04-16T02:40:59.449Z,8.74
2023-04-16T02:43:26.047Z,8.75
2023-04-16T02:45:52.811Z,8.73
2023-04-16T02:48:19.609Z,8.68
2023-04-16T02:50:46.331Z,8.73
2023-04-16T02:53:12.932Z,8.75
2023-04-16T02:55:39.573Z,8.79
2023-04-16T02:58:06.217Z,8.82
2023-04-16T03:00:32.837Z,8.85
2023-04-16T03:02:59.511Z,8.89
2023-04-16T03:05:26.180Z,8.94
2023-04-16T03:07:56.749Z,8.96
2023-04-16T03:10:24.175Z,9.06
2023-04-16T03:12:51.002Z,9.12
2023-04-16T03:15:17.797Z,9.21
2023-04-16T03:17:44.540Z,9.22
2023-04-16T03:20:11.582Z,9.30
2023-04-16T03:22:41.035Z,9.31
2023-04-16T03:25:08.294Z,9.30
2023-04-16T03:27:35.484Z,9.27
2023-04-16T03:30:02.560Z,9.30
2023-04-16T03:32:29.474Z,9.29
2023-04-16T03:34:56.083Z,9.27
2023-04-16T03:37:23.130Z,9.32
2023-04-16T03:39:49.763Z,9.28
2023-04-16T03:42:16.421Z,9.26
2023-04-16T03:44:43.146Z,9.27
2023-04-16T03:47:09.753Z,9.28
2023-04-16T03:49:36.356Z,9.31
2023-04-16T03:52:03.055Z,9.28
2023-04-16T03:54:29.742Z,9.46
2023-04-16T03:56:57.120Z,9.27
2023-04-16T03:59:23.787Z,9.29
2023-04-16T04:01:50.869Z,9.32
2023-04-16T04:04:17.708Z,9.30
2023-04-16T04:06:46.851Z,9.35
2023-04-16T04:09:15.082Z,9.38
2023-04-16T04:11:42.301Z,9.36
2023-04-16T04:14:09.196Z,9.45
2023-04-16T04:16:35.864Z,9.43
2023-04-16T04:19:02.706Z,9.48
2023-04-16T04:21:29.798Z,9.49
2023-04-16T04:23:56.423Z,9.59
2023-04-16T04:26:23.047Z,9.64
2023-04-16T04:28:50.387Z,9.65
2023-04-16T04:31:17.120Z,10.04
2023-04-16T04:33:43.756Z,9.71
2023-04-16T04:36:10.581Z,9.72
2023-04-16T04:38:37.339Z,9.77
2023-04-16T04:41:04.055Z,9.76
2023-04-16T04:43:30.664Z,9.81
2023-04-16T04:45:57.254Z,9.78
2023-04-16T04:48:26.843Z,9.83
2023-04-16T04:50:53.990Z,9.87
2023-04-16T04:53:20.770Z,9.92
2023-04-16T04:55:50.901Z,10.03
2023-04-16T04:58:19.653Z,10.11
2023-04-16T05:00:46.301Z,10.20
2023-04-16T05:03:13.150Z,10.21
2023-04-16T05:05:40.989Z,10.28
2023-04-16T05:08:07.891Z,10.28
2023-04-16T05:10:34.526Z,10.33
2023-04-16T05:13:01.293Z,10.38
2023-04-16T05:15:28.138Z,10.44
2023-04-16T05:17:56.275Z,10.48
2023-04-16T05:20:26.406Z,10.61
2023-04-16T05:22:53.090Z,10.76
2023-04-16T05:25:19.853Z,10.83
2023-04-16T05:27:46.581Z,10.94
2023-04-16T05:30:13.260Z,11.02
2023-04-16T05:32:41.392Z,11.13
2023-04-16T05:35:09.979Z,11.25
2023-04-16T05:37:36.774Z,11.39
2023-04-16T05:40:04.202Z,11.35
2023-04-16T05:42:31.140Z,11.48
2023-04-16T05:44:57.796Z,11.32
2023-04-16T05:47:24.744Z,11.58
2023-04-16T05:49:51.370Z,11.41
2023-04-16T05:52:18.082Z,11.41
2023-04-16T05:54:44.752Z,11.54
2023-04-16T05:57:11.783Z,11.62
2023-04-16T05:59:39.374Z,11.35
2023-04-16T06:02:06.942Z,11.49
2023-04-16T06:04:33.739Z,11.49
2023-04-16T06:07:00.952Z,11.50
2023-04-16T06:09:28.287Z,11.59
2023-04-16T06:11:55.505Z,11.60
2023-04-16T06:14:22.131Z,11.66
2023-04-16T06:16:49.271Z,11.82
2023-04-16T06:19:15.980Z,11.81
2023-04-16T06:21:42.647Z,12.02
2023-04-16T06:24:09.273Z,11.96
2023-04-16T06:26:35.861Z,12.20
2023-04-16T06:29:02.597Z,12.21
2023-04-16T06:31:30.150Z,12.25
2023-04-16T06:33:57.064Z,12.50
2023-04-16T06:36:23.709Z,12.44
2023-04-16T06:38:51.916Z,12.39
2023-04-16T06:41:18.595Z,12.73
2023-04-16T06:43:45.274Z,12.43
2023-04-16T06:46:11.940Z,12.51
2023-04-16T06:48:38.587Z,12.71
2023-04-16T06:51:05.373Z,12.99
2023-04-16T06:53:32.054Z,12.78
2023-04-16T06:55:58.684Z,12.95
2023-04-16T06:58:25.477Z,13.21
2023-04-16T07:00:52.202Z,13.40
2023-04-16T07:03:18.925Z,13.31
2023-04-16T07:05:45.666Z,13.14
2023-04-16T07:08:12.550Z,13.34
2023-04-16T07:10:39.307Z,13.73
2023-04-16T07:13:06.105Z,13.70
2023-04-16T07:15:32.730Z,13.56
2023-04-16T07:17:59.559Z,13.90
2023-04-16T07:20:26.511Z,13.90
2023-04-16T07:22:53.183Z,14.08
2023-04-16T07:25:19.889Z,14.18
2023-04-16T07:27:46.652Z,14.44
2023-04-16T07:30:13.308Z,14.44
2023-04-16T07:32:40.035Z,14.45
2023-04-16T07:35:07.052Z,14.80
2023-04-16T07:37:33.657Z,15.17
2023-04-16T07:40:00.903Z,14.93
2023-04-16T07:42:28.234Z,14.45
2023-04-16T07:44:55.566Z,15.26
2023-04-16T07:47:23.243Z,14.85
2023-04-16T07:49:50.761Z,15.34
2023-04-16T07:52:17.404Z,15.66
2023-04-16T07:54:44.010Z,15.86
2023-04-16T07:57:12.246Z,16.05
2023-04-16T07:59:38.821Z,16.07
2023-04-16T08:02:06.360Z,15.95
2023-04-16T08:04:33.406Z,15.63
2023-04-16T08:07:00.292Z,15.31
2023-04-16T08:09:28.675Z,15.54
2023-04-16T08:11:55.381Z,15.79
2023-04-16T08:14:21.997Z,15.50
2023-04-16T08:16:48.792Z,15.23
2023-04-16T08:19:15.421Z,15.58
2023-04-16T08:21:42.064Z,15.63
2023-04-16T08:24:08.751Z,16.10
2023-04-16T08:26:35.514Z,15.86
2023-04-16T08:29:02.151Z,15.90
2023-04-16T08:31:28.953Z,16.00
2023-04-16T08:33:55.794Z,15.88
2023-04-16T08:36:22.534Z,15.19
2023-04-16T08:38:49.317Z,15.90
2023-04-16T08:41:16.187Z,15.68
2023-04-16T08:43:45.699Z,15.51
2023-04-16T08:46:13.154Z,16.10
2023-04-16T08:48:42.927Z,15.89
2023-04-16T08:51:12.856Z,15.62
2023-04-16T08:53:47.886Z,14.89
2023-04-16T08:56:15.841Z,15.09
2023-04-16T08:58:42.651Z,15.12
2023-04-16T09:01:11.465Z,14.91
2023-04-16T09:03:38.567Z,15.23
2023-04-16T09:06:06.600Z,15.45
2023-04-16T09:08:36.195Z,15.35
2023-04-16T09:11:03.696Z,15.21
2023-04-16T09:13:31.867Z,15.15
2023-04-16T09:15:59.853Z,14.86
2023-04-16T09:18:28.227Z,15.06
2023-04-16T09:20:56.426Z,14.86
2023-04-16T09:23:23.251Z,14.84
2023-04-16T09:25:49.849Z,15.18
2023-04-16T09:28:42.276Z,15.39
2023-04-16T09:31:14.245Z,15.51
2023-04-16T09:33:41.123Z,15.46
2023-04-16T09:36:07.785Z,15.53
2023-04-16T09:38:48.285Z,15.94
2023-04-16T09:41:18.521Z,16.21
2023-04-16T09:43:55.605Z,16.17
2023-04-16T09:46:22.392Z,16.32
2023-04-16T09:48:49.093Z,16.97
2023-04-16T09:51:16.084Z,17.20
2023-04-16T09:53:42.757Z,17.85
2023-04-16T09:56:09.934Z,17.57
2023-04-16T09:58:37.409Z,17.03
2023-04-16T10:01:10.287Z,17.53
2023-04-16T10:03:39.307Z,17.71
2023-04-16T10:06:34.928Z,17.13
2023-04-16T10:09:09.657Z,16.78
2023-04-16T10:11:38.868Z,16.99
2023-04-16T10:14:05.841Z,17.86
2023-04-16T10:16:36.633Z,18.27
2023-04-16T10:19:03.520Z,18.20
2023-04-16T10:21:34.286Z,18.55
2023-04-16T10:24:01.787Z,18.32
2023-04-16T10:26:30.625Z,18.42
2023-04-16T10:28:59.374Z,18.84
2023-04-16T10:31:29.762Z,18.74
2023-04-16T10:33:57.939Z,18.63
2023-04-16T10:40:24.382Z,19.49
2023-04-16T10:43:01.677Z,19.32
2023-04-16T10:45:39.052Z,19.97
2023-04-16T10:48:08.692Z,19.29
2023-04-16T10:50:38.210Z,19.66
2023-04-16T10:53:25.890Z,19.69
2023-04-16T10:56:05.056Z,19.80
2023-04-16T10:58:34.963Z,20.00
2023-04-16T11:01:06.937Z,19.96
2023-04-16T11:03:33.774Z,21.03
2023-04-16T11:06:27.625Z,21.59
2023-04-16T11:08:55.415Z,20.88
2023-04-16T11:11:25.847Z,21.25
2023-04-16T11:13:57.228Z,21.60
2023-04-16T11:16:25.768Z,21.26
2023-04-16T11:18:53.918Z,21.09
2023-04-16T11:21:22.372Z,20.17
2023-04-16T11:23:53.565Z,20.52
2023-04-16T11:26:26.168Z,20.64
2023-04-16T11:28:56.231Z,20.35
2023-04-16T11:31:27.431Z,20.00
2023-04-16T11:33:56.479Z,19.43
2023-04-16T11:36:23.794Z,19.43
2023-04-16T11:39:02.221Z,18.40
2023-04-16T11:41:28.928Z,17.89
2023-04-16T11:43:55.542Z,18.12
2023-04-16T11:46:27.411Z,18.00
2023-04-16T11:48:58.695Z,17.81
2023-04-16T11:51:25.304Z,18.15
2023-04-16T11:53:53.348Z,18.27
2023-04-16T11:56:30.980Z,18.12
2023-04-16T11:59:08.675Z,18.46
2023-04-16T12:01:36.929Z,17.85
2023-04-16T12:04:04.508Z,18.48
2023-04-16T12:06:35.675Z,18.71
2023-04-16T12:09:23.204Z,18.85
2023-04-16T12:11:49.892Z,18.57
2023-04-16T12:14:19.719Z,18.93
2023-04-16T12:16:46.541Z,18.87
2023-04-16T12:19:13.780Z,18.88
2023-04-16T12:21:46.373Z,19.21
2023-04-16T12:24:15.147Z,19.08
2023-04-16T12:26:44.661Z,19.06
2023-04-16T12:29:17.880Z,19.02
2023-04-16T12:31:44.590Z,19.23
2023-04-16T12:34:18.663Z,18.88
2023-04-16T12:36:46.726Z,19.29
2023-04-16T12:39:14.989Z,19.69
2023-04-16T12:41:44.465Z,20.37
2023-04-16T12:44:16.619Z,19.79
2023-04-16T12:46:44.203Z,19.25
2023-04-16T12:49:11.677Z,18.74
2023-04-16T12:51:39.133Z,19.13
2023-04-16T12:54:07.679Z,19.74
2023-04-16T12:56:35.655Z,20.03
2023-04-16T12:59:05.431Z,19.76
2023-04-16T13:01:32.195Z,19.70
2023-04-16T13:03:59.090Z,19.40
2023-04-16T13:06:26.409Z,19.43
2023-04-16T13:08:53.033Z,19.38
2023-04-16T13:11:20.316Z,19.11
2023-04-16T13:13:46.963Z,19.38
2023-04-16T13:16:13.594Z,19.54
2023-04-16T13:18:43.066Z,19.53
2023-04-16T13:21:09.934Z,19.62
2023-04-16T13:23:36.621Z,20.48
2023-04-16T13:26:03.302Z,20.11
2023-04-16T13:28:29.881Z,19.77
2023-04-16T13:30:59.842Z,20.21
2023-04-16T13:33:26.909Z,20.40
2023-04-16T13:35:53.517Z,20.52
2023-04-16T13:38:20.304Z,19.91
2023-04-16T13:40:46.971Z,20.02
2023-04-16T13:43:13.942Z,19.75
2023-04-16T13:45:40.677Z,19.87
2023-04-16T13:48:07.302Z,19.65
2023-04-16T13:50:35.656Z,19.66
2023-04-16T13:53:02.354Z,19.05
2023-04-16T13:55:32.190Z,18.99
2023-04-16T13:57:58.890Z,19.28
2023-04-16T14:00:27.231Z,19.05
2023-04-16T14:02:54.087Z,18.36
2023-04-16T14:05:20.908Z,18.23
2023-04-16T14:07:47.569Z,18.19
2023-04-16T14:10:14.200Z,18.25
2023-04-16T14:15:27.540Z,18.26
2023-04-16T14:17:57.023Z,18.35
2023-04-16T14:20:23.748Z,18.39
2023-04-16T14:22:50.409Z,18.80
2023-04-16T14:25:17.292Z,18.86
2023-04-16T14:27:44.003Z,18.69
2023-04-16T14:30:12.408Z,18.18
2023-04-16T14:32:39.171Z,17.93
2023-04-16T14:35:06.585Z,17.70
2023-04-16T14:37:35.880Z,17.39
2023-04-16T14:40:07.749Z,17.01
2023-04-16T14:42:36.671Z,16.57
2023-04-16T14:45:06.535Z,15.92
2023-04-16T14:47:35.313Z,15.51
2023-04-16T14:50:03.364Z,15.54
2023-04-16T14:52:32.971Z,15.25
2023-04-16T14:54:59.791Z,15.21
2023-04-16T14:57:27.882Z,15.20
2023-04-16T14:59:54.528Z,15.21
2023-04-16T15:02:21.866Z,15.21
2023-04-16T15:04:48.735Z,15.22
2023-04-16T15:07:15.569Z,15.18
2023-04-16T15:09:42.356Z,15.28
2023-04-16T15:12:09.310Z,15.22
2023-04-16T15:14:36.102Z,15.13
2023-04-16T15:17:05.515Z,15.27
2023-04-16T15:19:32.275Z,15.30
2023-04-16T15:22:01.983Z,15.21
2023-04-16T15:24:28.643Z,15.24
2023-04-16T15:26:55.227Z,15.14
2023-04-16T15:29:22.160Z,15.14
2023-04-16T15:31:52.339Z,15.20
2023-04-16T15:34:18.931Z,15.18
2023-04-16T15:36:45.710Z,15.04
2023-04-16T15:39:12.552Z,15.09
2023-04-16T15:41:50.249Z,15.08
2023-04-16T15:44:26.234Z,15.23
2023-04-16T15:46:52.872Z,15.09
2023-04-16T15:49:19.491Z,15.16
2023-04-16T15:51:46.311Z,15.00
2023-04-16T15:54:12.902Z,15.08
2023-04-16T15:56:39.677Z,15.17
2023-04-16T15:59:06.569Z,15.07
2023-04-16T16:01:33.144Z,15.03
2023-04-16T16:04:00.115Z,15.03
2023-04-16T16:06:27.390Z,14.96
2023-04-16T16:08:54.728Z,14.95
2023-04-16T16:11:21.857Z,14.91
2023-04-16T16:13:48.589Z,14.88
2023-04-16T16:16:15.461Z,14.88
2023-04-16T16:18:42.334Z,14.91
2023-04-16T16:21:09.022Z,14.79
2023-04-16T16:23:36.139Z,14.71
2023-04-16T16:26:05.724Z,14.65
2023-04-16T16:28:39.832Z,14.67
2023-04-16T16:31:07.397Z,14.69
2023-04-16T16:33:34.114Z,14.63
2023-04-16T16:36:00.780Z,14.62
2023-04-16T16:38:27.707Z,14.55
2023-04-16T16:40:54.368Z,14.51
2023-04-16T16:43:23.762Z,14.48
2023-04-16T16:45:50.627Z,14.38
2023-04-16T16:48:17.311Z,14.34
2023-04-16T16:50:43.881Z,14.41
2023-04-16T16:53:10.609Z,14.33
2023-04-16T16:55:37.279Z,14.34
2023-04-16T16:58:04.610Z,14.31
2023-04-16T17:00:31.339Z,14.32
2023-04-16T17:02:58.178Z,14.27
2023-04-16T17:05:25.004Z,14.28
2023-04-16T17:07:51.742Z,14.21
2023-04-16T17:10:21.483Z,14.24
2023-04-16T17:12:49.898Z,14.17
2023-04-16T17:15:21.781Z,14.18
2023-04-16T17:17:48.877Z,14.22
2023-04-16T17:20:15.743Z,14.16
2023-04-16T17:22:42.713Z,14.09
2023-04-16T17:25:09.674Z,14.14
2023-04-16T17:27:41.986Z,14.18
2023-04-16T17:30:09.034Z,14.12
2023-04-16T17:32:35.983Z,14.12
2023-04-16T17:35:06.915Z,14.13
2023-04-16T17:37:33.667Z,14.09
2023-04-16T17:40:00.534Z,14.07
2023-04-16T17:42:27.133Z,14.07
2023-04-16T17:44:53.731Z,14.01
2023-04-16T17:47:20.436Z,14.04
2023-04-16T17:49:47.105Z,13.95
2023-04-16T17:52:13.725Z,14.02
2023-04-16T17:54:40.399Z,13.95
2023-04-16T17:57:07.139Z,13.97
2023-04-16T17:59:34.655Z,13.99
2023-04-16T18:02:01.374Z,13.97
2023-04-16T18:04:28.104Z,13.99
2023-04-16T18:06:54.871Z,14.02
2023-04-16T18:09:21.587Z,14.00
2023-04-16T18:11:49.484Z,13.89
2023-04-16T18:14:20.063Z,13.87
2023-04-16T18:16:49.951Z,13.88
2023-04-16T18:19:16.672Z,13.82
2023-04-16T18:21:43.432Z,13.80
2023-04-16T18:24:10.689Z,13.88
2023-04-16T18:26:37.782Z,13.87
2023-04-16T18:29:05.502Z,13.80
2023-04-16T18:31:32.361Z,13.94
2023-04-16T18:33:59.269Z,13.90
2023-04-16T18:36:27.002Z,13.93
2023-04-16T18:39:01.777Z,13.88
2023-04-16T18:41:30.880Z,13.88
2023-04-16T18:43:57.678Z,13.84
2023-04-16T18:46:25.323Z,13.87
2023-04-16T18:48:52.164Z,13.81
2023-04-16T18:51:18.820Z,13.82
2023-04-16T18:53:45.792Z,13.80
2023-04-16T18:56:12.865Z,13.78
2023-04-16T18:58:39.577Z,13.93
2023-04-16T19:01:11.023Z,13.93
2023-04-16T19:03:38.235Z,13.87
2023-04-16T19:06:05.922Z,13.84
2023-04-16T19:08:32.668Z,13.78
2023-04-16T19:10:59.692Z,13.77
2023-04-16T19:13:27.580Z,13.88
2023-04-16T19:16:01.796Z,13.93
2023-04-16T19:18:28.697Z,14.01
2023-04-16T19:21:01.508Z,13.99
2023-04-16T19:23:29.041Z,14.07
2023-04-16T19:25:57.089Z,14.12
2023-04-16T19:28:24.612Z,14.16
2023-04-16T19:30:53.226Z,14.11
2023-04-16T19:33:20.223Z,14.05
2023-04-16T19:35:47.386Z,14.12
2023-04-16T19:38:14.533Z,14.06
2023-04-16T19:40:45.521Z,14.10
2023-04-16T19:43:12.660Z,14.14
2023-04-16T19:45:53.576Z,14.12
2023-04-16T19:48:20.621Z,14.20
2023-04-16T19:50:47.710Z,14.20
2023-04-16T19:53:14.655Z,14.25
2023-04-16T19:55:42.015Z,14.23
2023-04-16T19:58:09.722Z,14.20
2023-04-16T20:00:38.938Z,14.23
2023-04-16T20:03:06.328Z,14.21
2023-04-16T20:05:36.617Z,14.26
2023-04-16T20:08:03.375Z,14.26
2023-04-16T20:10:31.603Z,14.31
2023-04-16T20:12:58.469Z,14.34
2023-04-16T20:15:25.126Z,14.35
2023-04-16T20:17:52.393Z,14.33
2023-04-16T20:20:19.159Z,14.39
2023-04-16T20:22:46.003Z,14.38
2023-04-16T20:25:14.359Z,14.48
2023-04-16T20:27:41.098Z,14.41
2023-04-16T20:30:08.455Z,14.36
2023-04-16T20:32:35.278Z,14.38
2023-04-16T20:35:02.065Z,14.45
2023-04-16T20:37:29.239Z,14.42
2023-04-16T20:39:56.364Z,14.49
2023-04-16T20:42:26.480Z,14.54
2023-04-16T20:44:56.464Z,14.51
2023-04-16T20:47:23.963Z,14.54
2023-04-16T20:49:50.766Z,14.59
2023-04-16T20:52:17.467Z,14.50
2023-04-16T20:54:44.356Z,14.49
2023-04-16T20:57:12.095Z,14.53
2023-04-16T20:59:38.718Z,14.50
2023-04-16T21:02:05.845Z,14.62
2023-04-16T21:04:35.150Z,14.52
2023-04-16T21:07:04.060Z,14.48
2023-04-16T21:09:31.528Z,14.48
2023-04-16T21:11:58.319Z,14.47
2023-04-16T21:14:25.005Z,14.46
2023-04-16T21:16:51.569Z,14.45
2023-04-16T21:19:18.240Z,14.39
2023-04-16T21:21:44.945Z,14.37
2023-04-16T21:24:11.676Z,14.36
2023-04-16T21:26:39.496Z,14.35
2023-04-16T21:29:06.198Z,14.44
2023-04-16T21:31:33.244Z,14.32
2023-04-16T21:33:59.946Z,14.17
2023-04-16T21:36:27.764Z,14.19
2023-04-16T21:38:54.543Z,14.21
2023-04-16T21:41:21.201Z,14.16
2023-04-16T21:43:47.814Z,14.12
2023-04-16T21:46:17.538Z,14.12
2023-04-16T21:48:44.963Z,14.13
2023-04-16T21:51:11.560Z,14.10
2023-04-16T21:53:39.106Z,14.22
2023-04-16T21:56:06.658Z,14.10
2023-04-16T21:58:33.298Z,14.13
2023-04-16T22:00:59.998Z,14.16
2023-04-16T22:03:28.185Z,14.13
2023-04-16T22:06:01.141Z,14.14
2023-04-16T22:08:28.906Z,14.11
2023-04-16T22:10:59.761Z,14.09
2023-04-16T22:13:26.573Z,14.00
2023-04-16T22:15:54.793Z,14.07
2023-04-16T22:18:22.168Z,13.96
2023-04-16T22:20:51.009Z,13.95
2023-04-16T22:23:17.707Z,13.93
2023-04-16T22:25:44.673Z,13.99
2023-04-16T22:28:11.415Z,13.96
2023-04-16T22:30:38.193Z,13.90
2023-04-16T22:33:05.050Z,13.96
2023-04-16T22:35:31.716Z,13.86
2023-04-16T22:37:58.369Z,13.85
2023-04-16T22:40:27.660Z,13.80
2023-04-16T22:42:54.264Z,13.79
2023-04-16T22:45:20.927Z,13.67
2023-04-16T22:47:47.688Z,13.78
2023-04-16T22:50:15.252Z,13.80
2023-04-16T22:52:41.965Z,13.74
2023-04-16T22:55:08.921Z,13.62
2023-04-16T22:57:35.597Z,13.62
2023-04-16T23:00:02.425Z,13.57
2023-04-16T23:02:29.280Z,13.49
2023-04-16T23:04:56.040Z,13.52
2023-04-16T23:07:22.637Z,13.51
2023-04-16T23:09:49.259Z,13.44
2023-04-16T23:12:16.065Z,13.29
2023-04-16T23:14:46.066Z,13.14
2023-04-16T23:17:13.847Z,13.24
2023-04-16T23:19:40.501Z,13.17
2023-04-16T23:22:07.272Z,13.20
2023-04-16T23:24:33.892Z,13.27
2023-04-16T23:27:01.148Z,13.37
2023-04-16T23:29:27.828Z,13.34
2023-04-16T23:31:54.490Z,13.38
2023-04-16T23:34:21.107Z,13.28
2023-04-16T23:36:47.836Z,13.34
2023-04-16T23:39:14.457Z,13.32
2023-04-16T23:41:42.233Z,13.30
2023-04-16T23:44:08.980Z,13.33
2023-04-16T23:46:35.708Z,13.25
2023-04-16T23:49:02.348Z,13.20
2023-04-16T23:51:28.961Z,13.15
2023-04-16T23:53:55.663Z,13.15
2023-04-16T23:56:22.249Z,13.20
2023-04-16T23:58:49.149Z,13.15
